createdAt,value
2023-05-22T00:01:49.450Z,100.00
2023-05-22T00:04:21.503Z,100.00
2023-05-22T00:06:50.150Z,100.00
2023-05-22T00:09:19.566Z,100.00
2023-05-22T00:11:47.593Z,100.00
2023-05-22T00:14:15.835Z,100.00
2023-05-22T00:16:44.247Z,100.00
2023-05-22T00:19:17.381Z,100.00
2023-05-22T00:21:47.064Z,100.00
2023-05-22T00:24:15.061Z,100.00
2023-05-22T00:26:44.465Z,100.00
2023-05-22T00:29:12.489Z,100.00
2023-05-22T00:31:40.508Z,100.00
2023-05-22T00:34:08.625Z,100.00
2023-05-22T00:36:36.633Z,100.00
2023-05-22T00:39:04.784Z,100.00
2023-05-22T00:41:34.055Z,100.00
2023-05-22T00:44:03.896Z,100.00
2023-05-22T00:46:33.406Z,100.00
2023-05-22T00:49:01.537Z,100.00
2023-05-22T00:51:29.776Z,100.00
2023-05-22T00:53:58.776Z,100.00
2023-05-22T00:56:29.217Z,100.00
2023-05-22T00:58:57.529Z,100.00
2023-05-22T01:01:33.602Z,100.00
2023-05-22T01:04:02.267Z,100.00
2023-05-22T01:06:32.364Z,100.00
2023-05-22T01:09:01.615Z,100.00
2023-05-22T01:11:37.771Z,100.00
2023-05-22T01:14:12.178Z,100.00
2023-05-22T01:16:51.932Z,100.00
2023-05-22T01:19:41.682Z,100.00
2023-05-22T01:22:31.104Z,100.00
2023-05-22T01:25:17.174Z,100.00
2023-05-22T01:28:03.878Z,100.00
2023-05-22T01:30:50.071Z,100.00
2023-05-22T01:33:20.237Z,100.00
2023-05-22T01:35:54.219Z,100.00
2023-05-22T01:38:23.068Z,100.00
2023-05-22T01:40:51.725Z,100.00
2023-05-22T01:43:20.961Z,100.00
2023-05-22T01:45:50.685Z,100.00
2023-05-22T01:48:18.774Z,100.00
2023-05-22T01:50:52.705Z,100.00
2023-05-22T01:53:29.178Z,100.00
2023-05-22T01:56:02.728Z,100.00
2023-05-22T01:58:35.719Z,100.00
2023-05-22T02:01:05.626Z,100.00
2023-05-22T02:03:36.507Z,100.00
2023-05-22T02:06:07.437Z,100.00
2023-05-22T02:08:37.164Z,100.00
2023-05-22T02:11:06.533Z,100.00
2023-05-22T02:13:35.488Z,100.00
2023-05-22T02:16:06.416Z,100.00
2023-05-22T02:18:34.446Z,100.00
2023-05-22T02:21:03.413Z,100.00
2023-05-22T02:23:31.493Z,100.00
2023-05-22T02:25:59.520Z,100.00
2023-05-22T02:28:28.099Z,100.00
2023-05-22T02:30:56.168Z,100.00
2023-05-22T02:33:25.572Z,100.00
2023-05-22T02:35:53.548Z,100.00
2023-05-22T02:38:21.513Z,100.00
2023-05-22T02:40:49.879Z,100.00
2023-05-22T02:43:17.858Z,100.00
2023-05-22T02:45:46.011Z,100.00
2023-05-22T02:48:14.010Z,100.00
2023-05-22T02:50:44.344Z,100.00
2023-05-22T02:53:13.252Z,100.00
2023-05-22T02:55:41.874Z,100.00
2023-05-22T02:58:11.484Z,100.00
2023-05-22T03:00:39.701Z,100.00
2023-05-22T03:03:08.432Z,100.00
2023-05-22T03:05:36.649Z,100.00
2023-05-22T03:08:06.849Z,100.00
2023-05-22T03:10:34.806Z,100.00
2023-05-22T03:13:02.788Z,100.00
2023-05-22T03:15:30.925Z,100.00
2023-05-22T03:17:58.976Z,100.00
2023-05-22T03:20:27.009Z,100.00
2023-05-22T03:22:55.063Z,100.00
2023-05-22T03:25:24.434Z,100.00
2023-05-22T03:27:52.455Z,100.00
2023-05-22T03:30:20.523Z,100.00
2023-05-22T03:32:48.541Z,100.00
2023-05-22T03:35:19.723Z,100.00
2023-05-22T03:37:48.234Z,100.00
2023-05-22T03:40:16.478Z,100.00
2023-05-22T03:42:45.829Z,100.00
2023-05-22T03:45:13.873Z,100.00
2023-05-22T03:47:41.940Z,100.00
2023-05-22T03:50:11.150Z,100.00
2023-05-22T03:52:39.491Z,100.00
2023-05-22T03:55:09.059Z,100.00
2023-05-22T03:57:37.083Z,100.00
2023-05-22T04:00:10.004Z,100.00
2023-05-22T04:02:40.046Z,100.00
2023-05-22T04:05:09.513Z,100.00
2023-05-22T04:07:37.738Z,100.00
2023-05-22T04:10:06.501Z,100.00
2023-05-22T04:12:35.562Z,100.00
2023-05-22T04:15:03.601Z,100.00
2023-05-22T04:17:38.900Z,100.00
2023-05-22T04:20:10.390Z,100.00
2023-05-22T04:22:46.000Z,100.00
2023-05-22T04:25:14.079Z,100.00
2023-05-22T04:27:42.679Z,100.00
2023-05-22T04:30:11.597Z,100.00
2023-05-22T04:32:41.221Z,100.00
2023-05-22T04:35:10.198Z,100.00
2023-05-22T04:37:38.411Z,100.00
2023-05-22T04:40:08.551Z,100.00
2023-05-22T04:42:37.463Z,100.00
2023-05-22T04:45:06.218Z,100.00
2023-05-22T04:47:34.350Z,100.00
2023-05-22T04:50:04.053Z,100.00
2023-05-22T04:52:32.049Z,100.00
2023-05-22T04:55:01.106Z,100.00
2023-05-22T04:57:29.856Z,100.00
2023-05-22T04:59:58.299Z,100.00
2023-05-22T05:02:26.368Z,100.00
2023-05-22T05:04:54.427Z,100.00
2023-05-22T05:07:23.828Z,100.00
2023-05-22T05:09:51.961Z,100.00
2023-05-22T05:12:19.957Z,100.00
2023-05-22T05:14:47.986Z,100.00
2023-05-22T05:17:16.021Z,100.00
2023-05-22T05:19:43.994Z,100.00
2023-05-22T05:22:12.001Z,100.00
2023-05-22T05:24:41.480Z,100.00
2023-05-22T05:27:09.582Z,100.00
2023-05-22T05:29:37.633Z,100.00
2023-05-22T05:32:06.448Z,100.00
2023-05-22T05:34:34.547Z,100.00
2023-05-22T05:37:03.355Z,100.00
2023-05-22T05:39:31.333Z,100.00
2023-05-22T05:42:01.329Z,100.00
2023-05-22T05:44:29.296Z,100.00
2023-05-22T05:46:57.475Z,100.00
2023-05-22T05:49:25.461Z,100.00
2023-05-22T05:51:53.402Z,100.00
2023-05-22T05:54:22.064Z,100.00
2023-05-22T05:56:50.103Z,100.00
2023-05-22T05:59:19.496Z,100.00
2023-05-22T06:01:47.543Z,100.00
2023-05-22T06:04:15.718Z,100.00
2023-05-22T06:06:44.676Z,100.00
2023-05-22T06:09:12.836Z,100.00
2023-05-22T06:11:40.822Z,100.00
2023-05-22T06:14:10.077Z,100.00
2023-05-22T06:16:39.480Z,99.63
2023-05-22T06:19:07.573Z,100.00
2023-05-22T06:21:35.656Z,100.00
2023-05-22T06:24:03.705Z,100.00
2023-05-22T06:26:31.856Z,99.39
2023-05-22T06:28:59.868Z,97.53
2023-05-22T06:31:28.273Z,98.86
2023-05-22T06:33:57.739Z,94.21
2023-05-22T06:36:25.821Z,95.79
2023-05-22T06:38:54.948Z,96.83
2023-05-22T06:41:23.062Z,92.62
2023-05-22T06:43:51.012Z,94.88
2023-05-22T06:46:19.145Z,92.52
2023-05-22T06:48:47.136Z,91.80
2023-05-22T06:51:16.567Z,92.36
2023-05-22T06:53:44.571Z,89.44
2023-05-22T06:56:12.609Z,89.48
2023-05-22T06:58:41.260Z,90.70
2023-05-22T07:01:09.792Z,91.06
2023-05-22T07:03:39.337Z,90.30
2023-05-22T07:06:08.844Z,88.61
2023-05-22T07:08:38.350Z,89.17
2023-05-22T07:11:07.014Z,87.97
2023-05-22T07:13:35.131Z,86.19
2023-05-22T07:16:03.205Z,84.22
2023-05-22T07:18:31.487Z,85.54
2023-05-22T07:21:00.707Z,85.84
2023-05-22T07:23:28.704Z,86.29
2023-05-22T07:25:58.085Z,84.57
2023-05-22T07:28:26.132Z,85.80
2023-05-22T07:30:54.107Z,87.44
2023-05-22T07:33:22.243Z,85.71
2023-05-22T07:35:51.965Z,84.41
2023-05-22T07:38:20.068Z,81.63
2023-05-22T07:40:48.038Z,83.62
2023-05-22T07:43:17.365Z,77.37
2023-05-22T07:45:45.431Z,79.19
2023-05-22T07:48:13.585Z,80.07
2023-05-22T07:50:44.908Z,80.61
2023-05-22T07:53:13.071Z,78.22
2023-05-22T07:55:41.256Z,75.15
2023-05-22T07:58:10.971Z,74.77
2023-05-22T08:00:40.372Z,73.57
2023-05-22T08:03:08.591Z,75.08
2023-05-22T08:05:36.896Z,75.37
2023-05-22T08:08:05.192Z,73.72
2023-05-22T08:10:46.422Z,73.73
2023-05-22T08:13:16.937Z,72.80
2023-05-22T08:15:46.318Z,73.72
2023-05-22T08:18:14.338Z,72.19
2023-05-22T08:20:42.349Z,74.10
2023-05-22T08:23:10.480Z,75.07
2023-05-22T08:25:38.454Z,73.85
2023-05-22T08:28:06.615Z,73.64
2023-05-22T08:30:34.587Z,73.65
2023-05-22T08:33:04.057Z,72.77
2023-05-22T08:35:32.043Z,72.99
2023-05-22T08:38:00.048Z,72.50
2023-05-22T08:40:36.391Z,72.68
2023-05-22T08:43:06.015Z,73.73
2023-05-22T08:45:35.110Z,72.25
2023-05-22T08:48:06.756Z,72.33
2023-05-22T08:50:39.911Z,70.92
2023-05-22T08:53:09.420Z,70.20
2023-05-22T08:55:37.701Z,71.49
2023-05-22T08:58:06.241Z,72.67
2023-05-22T09:00:34.907Z,68.35
2023-05-22T09:03:03.620Z,68.19
2023-05-22T09:05:34.309Z,67.79
2023-05-22T09:08:15.997Z,65.01
2023-05-22T09:10:48.179Z,66.04
2023-05-22T09:13:25.915Z,65.97
2023-05-22T09:15:54.474Z,66.14
2023-05-22T09:18:26.439Z,67.16
2023-05-22T09:20:58.731Z,66.68
2023-05-22T09:23:29.575Z,65.36
2023-05-22T09:25:58.463Z,63.86
2023-05-22T09:28:27.137Z,63.32
2023-05-22T09:30:56.474Z,65.69
2023-05-22T09:33:25.736Z,62.61
2023-05-22T09:35:56.272Z,62.48
2023-05-22T09:38:28.120Z,62.29
2023-05-22T09:40:57.289Z,58.70
2023-05-22T09:43:25.982Z,59.80
2023-05-22T09:46:04.361Z,60.04
2023-05-22T09:48:36.067Z,59.36
2023-05-22T09:51:05.837Z,59.03
2023-05-22T09:53:34.865Z,58.13
2023-05-22T09:56:06.511Z,59.36
2023-05-22T09:58:36.734Z,59.05
2023-05-22T10:01:05.344Z,58.34
2023-05-22T10:03:35.414Z,58.78
2023-05-22T10:06:06.109Z,58.96
2023-05-22T10:08:42.824Z,57.63
2023-05-22T10:11:12.309Z,57.44
2023-05-22T10:13:42.481Z,56.00
2023-05-22T10:16:12.273Z,54.75
2023-05-22T10:18:41.741Z,55.33
2023-05-22T10:21:13.358Z,54.57
2023-05-22T10:23:42.834Z,54.45
2023-05-22T10:26:12.327Z,52.69
2023-05-22T10:28:46.281Z,53.65
2023-05-22T10:31:25.890Z,53.67
2023-05-22T10:33:58.470Z,54.10
2023-05-22T10:36:39.836Z,53.74
2023-05-22T10:39:25.432Z,53.27
2023-05-22T10:41:54.069Z,50.13
2023-05-22T10:44:23.984Z,51.85
2023-05-22T10:46:52.043Z,50.84
2023-05-22T10:49:24.482Z,52.53
2023-05-22T10:51:58.203Z,52.02
2023-05-22T10:54:42.314Z,51.31
2023-05-22T10:57:16.248Z,50.68
2023-05-22T10:59:44.334Z,51.13
2023-05-22T11:02:22.454Z,51.77
2023-05-22T11:04:50.891Z,48.99
2023-05-22T11:07:20.687Z,52.45
2023-05-22T11:09:48.992Z,52.00
2023-05-22T11:12:21.594Z,52.39
2023-05-22T11:14:51.850Z,51.82
2023-05-22T11:17:23.209Z,48.91
2023-05-22T11:20:06.427Z,48.65
2023-05-22T11:22:42.272Z,49.61
2023-05-22T11:25:12.253Z,49.69
2023-05-22T11:27:42.293Z,53.64
2023-05-22T11:30:12.179Z,54.17
2023-05-22T11:32:41.371Z,52.20
2023-05-22T11:35:10.029Z,52.50
2023-05-22T11:37:42.826Z,52.53
2023-05-22T11:40:11.975Z,51.77
2023-05-22T11:42:40.047Z,51.94
2023-05-22T11:45:09.288Z,51.12
2023-05-22T11:47:37.958Z,51.09
2023-05-22T11:50:07.385Z,50.79
2023-05-22T11:52:36.407Z,56.14
2023-05-22T11:55:07.908Z,60.09
2023-05-22T11:57:36.145Z,57.13
2023-05-22T12:00:06.584Z,55.13
2023-05-22T12:02:34.845Z,52.59
2023-05-22T12:05:02.865Z,57.32
2023-05-22T12:07:31.028Z,54.26
2023-05-22T12:10:00.277Z,55.64
2023-05-22T12:12:29.706Z,57.29
2023-05-22T12:14:58.925Z,56.05
2023-05-22T12:17:29.673Z,59.10
2023-05-22T12:20:01.555Z,60.40
2023-05-22T12:22:32.113Z,64.43
2023-05-22T12:25:00.085Z,62.09
2023-05-22T12:27:33.514Z,64.88
2023-05-22T12:30:10.374Z,63.28
2023-05-22T12:32:38.400Z,64.42
2023-05-22T12:35:07.132Z,62.53
2023-05-22T12:37:35.714Z,63.14
2023-05-22T12:40:05.317Z,61.97
2023-05-22T12:42:34.972Z,60.55
2023-05-22T12:45:02.954Z,63.56
2023-05-22T12:47:30.985Z,60.82
2023-05-22T12:49:59.086Z,61.96
2023-05-22T12:52:27.057Z,61.26
2023-05-22T12:54:54.998Z,60.91
2023-05-22T12:57:22.956Z,62.17
2023-05-22T12:59:52.239Z,60.17
2023-05-22T13:02:20.244Z,63.23
2023-05-22T13:04:48.216Z,60.82
2023-05-22T13:07:16.205Z,61.25
2023-05-22T13:09:44.166Z,57.94
2023-05-22T13:12:12.235Z,57.95
2023-05-22T13:14:40.649Z,57.58
2023-05-22T13:17:10.718Z,56.89
2023-05-22T13:19:38.752Z,57.55
2023-05-22T13:22:07.825Z,55.96
2023-05-22T13:24:35.955Z,56.58
2023-05-22T13:27:03.927Z,56.35
2023-05-22T13:29:32.892Z,56.12
2023-05-22T13:32:02.338Z,54.35
2023-05-22T13:34:31.822Z,50.74
2023-05-22T13:37:00.023Z,53.42
2023-05-22T13:39:28.022Z,51.17
2023-05-22T13:41:57.186Z,48.77
2023-05-22T13:44:26.225Z,49.75
2023-05-22T13:46:54.580Z,49.81
2023-05-22T13:49:22.592Z,50.06
2023-05-22T13:51:52.001Z,46.97
2023-05-22T13:54:19.977Z,47.75
2023-05-22T13:56:47.968Z,48.89
2023-05-22T13:59:16.037Z,48.81
2023-05-22T14:01:45.049Z,49.11
2023-05-22T14:04:13.283Z,46.79
2023-05-22T14:06:41.378Z,46.58
2023-05-22T14:09:11.378Z,45.00
2023-05-22T14:11:39.337Z,42.15
2023-05-22T14:14:07.982Z,42.67
2023-05-22T14:16:36.382Z,41.46
2023-05-22T14:19:05.337Z,42.24
2023-05-22T14:21:33.747Z,42.04
2023-05-22T14:24:04.485Z,45.51
2023-05-22T14:26:34.467Z,44.17
2023-05-22T14:29:03.835Z,44.13
2023-05-22T14:31:32.090Z,46.46
2023-05-22T14:34:00.528Z,44.30
2023-05-22T14:36:28.628Z,43.95
2023-05-22T14:38:58.023Z,43.32
2023-05-22T14:41:26.436Z,42.85
2023-05-22T14:43:55.806Z,43.05
2023-05-22T14:46:24.468Z,43.65
2023-05-22T14:48:53.123Z,43.20
2023-05-22T14:51:22.799Z,43.00
2023-05-22T14:53:50.806Z,44.78
2023-05-22T14:56:18.791Z,43.77
2023-05-22T14:58:46.759Z,42.84
2023-05-22T15:01:16.103Z,42.96
2023-05-22T15:03:44.596Z,41.25
2023-05-22T15:06:12.581Z,42.38
2023-05-22T15:08:40.521Z,44.10
2023-05-22T15:11:08.579Z,41.23
2023-05-22T15:13:36.623Z,42.38
2023-05-22T15:16:04.837Z,40.26
2023-05-22T15:18:34.180Z,41.86
2023-05-22T15:21:02.343Z,41.49
2023-05-22T15:23:30.292Z,41.93
2023-05-22T15:26:12.638Z,43.87
2023-05-22T15:28:40.999Z,44.68
2023-05-22T15:31:08.963Z,43.77
2023-05-22T15:33:39.138Z,42.38
2023-05-22T15:36:08.785Z,43.18
2023-05-22T15:38:36.818Z,43.03
2023-05-22T15:41:04.883Z,43.02
2023-05-22T15:43:34.803Z,42.06
2023-05-22T15:46:04.010Z,40.89
2023-05-22T15:48:32.662Z,42.31
2023-05-22T15:51:02.967Z,41.03
2023-05-22T15:53:30.906Z,43.32
2023-05-22T15:55:58.849Z,41.66
2023-05-22T15:58:28.520Z,42.99
2023-05-22T16:00:56.561Z,42.49
2023-05-22T16:03:25.085Z,42.85
2023-05-22T16:05:53.080Z,42.64
2023-05-22T16:08:23.067Z,43.10
2023-05-22T16:10:51.065Z,42.44
2023-05-22T16:13:19.693Z,41.01
2023-05-22T16:15:47.866Z,40.54
2023-05-22T16:18:17.772Z,41.55
2023-05-22T16:20:47.824Z,42.10
2023-05-22T16:23:17.699Z,41.98
2023-05-22T16:25:50.861Z,43.88
2023-05-22T16:28:19.929Z,43.37
2023-05-22T16:30:47.904Z,44.99
2023-05-22T16:33:15.871Z,44.88
2023-05-22T16:35:47.222Z,44.47
2023-05-22T16:38:15.320Z,43.69
2023-05-22T16:40:45.004Z,44.54
2023-05-22T16:43:14.952Z,44.10
2023-05-22T16:45:47.588Z,44.95
2023-05-22T16:48:15.962Z,46.04
2023-05-22T16:50:44.327Z,45.99
2023-05-22T16:53:12.430Z,47.71
2023-05-22T16:55:40.838Z,48.64
2023-05-22T16:58:09.666Z,47.92
2023-05-22T17:00:40.526Z,47.59
2023-05-22T17:03:09.808Z,47.68
2023-05-22T17:05:38.776Z,47.65
2023-05-22T17:08:07.263Z,48.20
2023-05-22T17:10:35.308Z,49.13
2023-05-22T17:13:03.373Z,50.13
2023-05-22T17:15:31.336Z,49.52
2023-05-22T17:18:00.849Z,49.44
2023-05-22T17:20:29.515Z,52.26
2023-05-22T17:22:57.633Z,54.16
2023-05-22T17:25:30.414Z,53.00
2023-05-22T17:28:00.033Z,52.12
2023-05-22T17:30:28.201Z,50.69
2023-05-22T17:32:58.149Z,52.88
2023-05-22T17:35:31.303Z,53.29
2023-05-22T17:38:00.947Z,53.86
2023-05-22T17:40:40.500Z,54.07
2023-05-22T17:43:19.315Z,53.33
2023-05-22T17:45:50.413Z,53.67
2023-05-22T17:48:27.532Z,54.30
2023-05-22T17:50:57.295Z,53.87
2023-05-22T17:53:27.077Z,53.04
2023-05-22T17:55:54.980Z,53.60
2023-05-22T17:58:23.406Z,53.14
2023-05-22T18:00:51.545Z,53.31
2023-05-22T18:03:21.745Z,54.52
2023-05-22T18:05:54.388Z,53.68
2023-05-22T18:08:27.272Z,55.54
2023-05-22T18:13:44.480Z,54.52
2023-05-22T18:16:14.511Z,54.43
2023-05-22T18:18:42.709Z,54.56
2023-05-22T18:21:11.927Z,55.70
2023-05-22T18:23:41.531Z,56.16
2023-05-22T18:26:09.921Z,57.20
2023-05-22T18:28:37.906Z,58.82
2023-05-22T18:31:05.983Z,59.90
2023-05-22T18:33:34.285Z,64.00
2023-05-22T18:36:02.256Z,65.74
2023-05-22T18:38:30.795Z,65.96
2023-05-22T18:41:00.164Z,64.99
2023-05-22T18:43:28.703Z,64.56
2023-05-22T18:45:57.904Z,64.08
2023-05-22T18:48:27.246Z,64.40
2023-05-22T18:50:57.434Z,66.42
2023-05-22T18:53:26.147Z,67.43
2023-05-22T18:55:54.793Z,67.42
2023-05-22T18:58:24.190Z,66.02
2023-05-22T19:00:55.462Z,66.55
2023-05-22T19:03:23.731Z,67.42
2023-05-22T19:05:51.735Z,70.81
2023-05-22T19:08:20.293Z,70.14
2023-05-22T19:10:48.244Z,70.39
2023-05-22T19:13:16.266Z,70.81
2023-05-22T19:15:47.322Z,71.78
2023-05-22T19:18:17.346Z,69.94
2023-05-22T19:20:45.427Z,69.09
2023-05-22T19:23:14.731Z,69.30
2023-05-22T19:25:42.895Z,70.38
2023-05-22T19:28:11.073Z,70.96
2023-05-22T19:30:39.727Z,72.16
2023-05-22T19:33:10.714Z,73.49
2023-05-22T19:35:38.934Z,73.64
2023-05-22T19:38:06.875Z,73.46
2023-05-22T19:40:34.837Z,74.58
2023-05-22T19:43:03.010Z,73.78
2023-05-22T19:45:30.996Z,73.20
2023-05-22T19:47:58.976Z,72.56
2023-05-22T19:50:28.427Z,71.19
2023-05-22T19:52:56.624Z,72.76
2023-05-22T19:55:24.807Z,73.76
2023-05-22T19:57:54.241Z,74.53
2023-05-22T20:00:35.312Z,74.74
2023-05-22T20:03:03.440Z,75.30
2023-05-22T20:05:32.908Z,76.22
2023-05-22T20:08:05.092Z,75.58
2023-05-22T20:10:35.989Z,75.93
2023-05-22T20:13:04.979Z,76.39
2023-05-22T20:15:33.112Z,76.89
2023-05-22T20:18:02.682Z,77.83
2023-05-22T20:20:32.182Z,77.11
2023-05-22T20:23:00.270Z,76.77
2023-05-22T20:25:28.304Z,77.39
2023-05-22T20:27:56.304Z,78.97
2023-05-22T20:30:24.622Z,79.80
2023-05-22T20:32:53.154Z,79.31
2023-05-22T20:35:22.202Z,81.75
2023-05-22T20:37:53.442Z,80.49
2023-05-22T20:40:22.763Z,78.48
2023-05-22T20:42:53.583Z,77.23
2023-05-22T20:45:21.913Z,77.31
2023-05-22T20:47:49.865Z,77.69
2023-05-22T20:50:18.547Z,78.86
2023-05-22T20:52:49.658Z,79.33
2023-05-22T20:55:19.124Z,79.85
2023-05-22T20:57:47.126Z,80.89
2023-05-22T21:00:18.333Z,81.05
2023-05-22T21:02:48.126Z,83.13
2023-05-22T21:05:16.157Z,86.26
2023-05-22T21:07:44.196Z,87.85
2023-05-22T21:10:12.777Z,88.17
2023-05-22T21:12:42.125Z,87.54
2023-05-22T21:15:11.293Z,87.33
2023-05-22T21:17:40.117Z,90.06
2023-05-22T21:20:09.372Z,90.29
2023-05-22T21:22:37.670Z,91.42
2023-05-22T21:25:07.164Z,91.78
2023-05-22T21:27:35.510Z,93.01
2023-05-22T21:30:05.342Z,94.08
2023-05-22T21:32:33.537Z,95.74
2023-05-22T21:35:01.817Z,94.20
2023-05-22T21:37:29.795Z,95.24
2023-05-22T21:39:57.753Z,95.81
2023-05-22T21:42:26.292Z,96.93
2023-05-22T21:44:54.382Z,98.06
2023-05-22T21:47:23.751Z,98.51
2023-05-22T21:49:51.705Z,99.29
2023-05-22T21:52:19.686Z,100.00
2023-05-22T21:54:47.660Z,100.00
2023-05-22T21:57:15.602Z,100.00
2023-05-22T21:59:43.573Z,99.31
2023-05-22T22:02:11.871Z,99.42
2023-05-22T22:04:41.282Z,99.31
2023-05-22T22:07:09.252Z,100.00
2023-05-22T22:09:37.221Z,100.00
2023-05-22T22:12:05.610Z,100.00
2023-05-22T22:14:33.579Z,100.00
2023-05-22T22:17:01.533Z,100.00
2023-05-22T22:19:29.604Z,100.00
2023-05-22T22:21:59.156Z,100.00
2023-05-22T22:24:27.185Z,100.00
2023-05-22T22:26:57.575Z,100.00
2023-05-22T22:29:26.210Z,100.00
2023-05-22T22:31:54.235Z,100.00
2023-05-22T22:34:22.225Z,100.00
2023-05-22T22:36:50.210Z,100.00
2023-05-22T22:39:19.512Z,100.00
2023-05-22T22:41:47.469Z,100.00
2023-05-22T22:44:15.437Z,100.00
2023-05-22T22:46:44.256Z,100.00
2023-05-22T22:49:12.261Z,100.00
2023-05-22T22:51:40.454Z,100.00
2023-05-22T22:54:08.389Z,100.00
2023-05-22T22:56:37.772Z,100.00
2023-05-22T22:59:05.720Z,100.00
2023-05-22T23:01:33.898Z,100.00
2023-05-22T23:04:01.941Z,100.00
2023-05-22T23:06:32.980Z,100.00
2023-05-22T23:09:03.949Z,100.00
2023-05-22T23:11:37.493Z,100.00
2023-05-22T23:14:07.856Z,100.00
2023-05-22T23:16:40.868Z,100.00
2023-05-22T23:19:10.657Z,100.00
2023-05-22T23:21:38.846Z,100.00
2023-05-22T23:24:07.628Z,100.00
2023-05-22T23:26:35.645Z,100.00
2023-05-22T23:29:03.709Z,100.00
2023-05-22T23:31:33.099Z,100.00
2023-05-22T23:34:01.190Z,100.00
2023-05-22T23:36:30.207Z,100.00
2023-05-22T23:38:58.134Z,100.00
2023-05-22T23:41:26.086Z,100.00
2023-05-22T23:43:54.050Z,100.00
2023-05-22T23:46:24.648Z,100.00
2023-05-22T23:48:54.274Z,100.00
2023-05-22T23:51:22.288Z,100.00
2023-05-22T23:53:50.207Z,100.00
2023-05-22T23:56:18.175Z,100.00
2023-05-22T23:58:46.102Z,100.00
